sensor_id;sensor_type;location;lat;lon;timestamp;pressure;altitude;pressure_sealevel;temperature;humidity
65190;BME280;51777;53.570;9.984;2022-08-19T00:01:51;101010.22;;;20.58;88.42
65190;BME280;51777;53.570;9.984;2022-08-19T00:04:19;101005.19;;;20.63;88.45
65190;BME280;51777;53.570;9.984;2022-08-19T00:06:46;101005.56;;;20.66;88.50
65190;BME280;51777;53.570;9.984;2022-08-19T00:09:15;100993.06;;;20.62;88.33
65190;BME280;51777;53.570;9.984;2022-08-19T00:11:41;100983.75;;;20.66;88.42
65190;BME280;51777;53.570;9.984;2022-08-19T00:14:10;100976.69;;;20.60;88.50
65190;BME280;51777;53.570;9.984;2022-08-19T00:16:40;100980.13;;;20.53;89.12
65190;BME280;51777;53.570;9.984;2022-08-19T00:19:06;100984.19;;;20.49;89.23
65190;BME280;51777;53.570;9.984;2022-08-19T00:21:32;100989.66;;;20.48;89.67
65190;BME280;51777;53.570;9.984;2022-08-19T00:23:57;100988.22;;;20.39;90.46
65190;BME280;51777;53.570;9.984;2022-08-19T00:26:24;100990.63;;;20.27;91.33
65190;BME280;51777;53.570;9.984;2022-08-19T00:28:50;100987.81;;;20.35;91.18
65190;BME280;51777;53.570;9.984;2022-08-19T00:31:16;100987.81;;;20.42;91.20
65190;BME280;51777;53.570;9.984;2022-08-19T00:33:41;100991.47;;;20.47;90.90
65190;BME280;51777;53.570;9.984;2022-08-19T00:36:08;100984.59;;;20.46;90.92
65190;BME280;51777;53.570;9.984;2022-08-19T00:38:35;100985.19;;;20.48;90.87
65190;BME280;51777;53.570;9.984;2022-08-19T00:41:01;100980.53;;;20.50;91.09
65190;BME280;51777;53.570;9.984;2022-08-19T00:43:27;100974.69;;;20.48;90.63
65190;BME280;51777;53.570;9.984;2022-08-19T00:45:53;100974.28;;;20.45;91.01
65190;BME280;51777;53.570;9.984;2022-08-19T00:48:19;100976.09;;;20.44;91.24
65190;BME280;51777;53.570;9.984;2022-08-19T00:50:47;100973.69;;;20.49;90.88
65190;BME280;51777;53.570;9.984;2022-08-19T00:53:16;100966.59;;;20.43;91.05
65190;BME280;51777;53.570;9.984;2022-08-19T00:55:49;100951.66;;;20.44;91.30
65190;BME280;51777;53.570;9.984;2022-08-19T00:58:18;100960.34;;;20.44;91.15
65190;BME280;51777;53.570;9.984;2022-08-19T01:00:44;100964.34;;;20.40;91.49
65190;BME280;51777;53.570;9.984;2022-08-19T01:03:14;100961.56;;;20.35;91.62
65190;BME280;51777;53.570;9.984;2022-08-19T01:05:42;100963.97;;;20.30;92.09
65190;BME280;51777;53.570;9.984;2022-08-19T01:08:09;100962.75;;;20.33;91.54
65190;BME280;51777;53.570;9.984;2022-08-19T01:10:44;100970.03;;;20.31;91.71
65190;BME280;51777;53.570;9.984;2022-08-19T01:13:10;100970.81;;;20.31;91.86
65190;BME280;51777;53.570;9.984;2022-08-19T01:15:43;100967.81;;;20.34;91.47
65190;BME280;51777;53.570;9.984;2022-08-19T01:18:13;100968.81;;;20.27;91.53
65190;BME280;51777;53.570;9.984;2022-08-19T01:20:40;100968.00;;;20.26;91.62
65190;BME280;51777;53.570;9.984;2022-08-19T01:23:06;100961.53;;;20.29;91.89
65190;BME280;51777;53.570;9.984;2022-08-19T01:25:41;100962.34;;;20.29;91.94
65190;BME280;51777;53.570;9.984;2022-08-19T01:28:15;100959.09;;;20.34;91.70
65190;BME280;51777;53.570;9.984;2022-08-19T01:30:41;100961.13;;;20.38;91.35
65190;BME280;51777;53.570;9.984;2022-08-19T01:33:06;100966.81;;;20.42;91.37
65190;BME280;51777;53.570;9.984;2022-08-19T01:35:32;100961.72;;;20.40;90.77
65190;BME280;51777;53.570;9.984;2022-08-19T01:38:00;100959.31;;;20.39;91.17
65190;BME280;51777;53.570;9.984;2022-08-19T01:40:29;100953.84;;;20.40;91.19
65190;BME280;51777;53.570;9.984;2022-08-19T01:42:56;100952.03;;;20.41;90.96
65190;BME280;51777;53.570;9.984;2022-08-19T01:45:24;100945.16;;;20.33;91.57
65190;BME280;51777;53.570;9.984;2022-08-19T01:47:50;100942.16;;;20.30;91.50
65190;BME280;51777;53.570;9.984;2022-08-19T01:50:16;100941.13;;;20.31;91.81
65190;BME280;51777;53.570;9.984;2022-08-19T01:52:43;100933.66;;;20.28;92.01
65190;BME280;51777;53.570;9.984;2022-08-19T01:55:12;100925.78;;;20.28;92.59
65190;BME280;51777;53.570;9.984;2022-08-19T01:57:39;100933.88;;;20.19;93.07
65190;BME280;51777;53.570;9.984;2022-08-19T02:00:08;100939.34;;;20.18;93.53
65190;BME280;51777;53.570;9.984;2022-08-19T02:02:36;100940.13;;;20.18;93.93
65190;BME280;51777;53.570;9.984;2022-08-19T02:05:01;100942.97;;;20.17;93.93
65190;BME280;51777;53.570;9.984;2022-08-19T02:07:27;100939.75;;;20.15;94.35
65190;BME280;51777;53.570;9.984;2022-08-19T02:09:53;100937.75;;;20.10;94.97
65190;BME280;51777;53.570;9.984;2022-08-19T02:12:20;100936.72;;;20.11;94.87
65190;BME280;51777;53.570;9.984;2022-08-19T02:14:46;100939.56;;;20.10;94.92
65190;BME280;51777;53.570;9.984;2022-08-19T02:17:12;100927.25;;;20.10;95.45
65190;BME280;51777;53.570;9.984;2022-08-19T02:19:37;100912.91;;;20.13;95.02
65190;BME280;51777;53.570;9.984;2022-08-19T02:22:03;100912.69;;;20.08;95.60
65190;BME280;51777;53.570;9.984;2022-08-19T02:24:29;100906.81;;;20.06;95.81
65190;BME280;51777;53.570;9.984;2022-08-19T02:26:54;100903.81;;;20.02;96.51
65190;BME280;51777;53.570;9.984;2022-08-19T02:29:19;100895.53;;;20.05;96.19
65190;BME280;51777;53.570;9.984;2022-08-19T02:31:45;100890.88;;;20.07;96.29
65190;BME280;51777;53.570;9.984;2022-08-19T02:34:10;100897.97;;;20.00;96.58
65190;BME280;51777;53.570;9.984;2022-08-19T02:36:36;100915.09;;;19.96;97.48
65190;BME280;51777;53.570;9.984;2022-08-19T02:39:01;100919.16;;;19.99;97.50
65190;BME280;51777;53.570;9.984;2022-08-19T02:41:29;100924.22;;;20.00;97.22
65190;BME280;51777;53.570;9.984;2022-08-19T02:43:57;100927.66;;;20.01;97.63
65190;BME280;51777;53.570;9.984;2022-08-19T02:46:26;100920.16;;;20.04;97.33
65190;BME280;51777;53.570;9.984;2022-08-19T02:48:54;100910.88;;;20.02;97.28
65190;BME280;51777;53.570;9.984;2022-08-19T02:51:24;100914.91;;;20.04;97.38
65190;BME280;51777;53.570;9.984;2022-08-19T02:53:50;100915.31;;;20.01;97.89
65190;BME280;51777;53.570;9.984;2022-08-19T02:56:17;100914.69;;;20.06;97.52
65190;BME280;51777;53.570;9.984;2022-08-19T02:58:43;100918.34;;;20.05;97.79
65190;BME280;51777;53.570;9.984;2022-08-19T03:01:09;100916.72;;;20.04;97.68
65190;BME280;51777;53.570;9.984;2022-08-19T03:03:35;100920.19;;;19.98;98.05
65190;BME280;51777;53.570;9.984;2022-08-19T03:06:13;100918.53;;;19.97;98.59
65190;BME280;51777;53.570;9.984;2022-08-19T03:08:41;100919.56;;;19.95;98.64
65190;BME280;51777;53.570;9.984;2022-08-19T03:11:13;100921.16;;;19.97;98.47
65190;BME280;51777;53.570;9.984;2022-08-19T03:13:39;100925.81;;;19.94;98.60
65190;BME280;51777;53.570;9.984;2022-08-19T03:16:05;100922.59;;;19.92;98.64
65190;BME280;51777;53.570;9.984;2022-08-19T03:18:31;100926.63;;;19.88;99.07
65190;BME280;51777;53.570;9.984;2022-08-19T03:20:56;100926.44;;;19.90;99.20
65190;BME280;51777;53.570;9.984;2022-08-19T03:23:22;100926.63;;;19.88;98.84
65190;BME280;51777;53.570;9.984;2022-08-19T03:25:49;100925.59;;;19.83;99.57
65190;BME280;51777;53.570;9.984;2022-08-19T03:28:16;100925.63;;;19.76;100.00
65190;BME280;51777;53.570;9.984;2022-08-19T03:30:54;100925.03;;;19.74;100.00
65190;BME280;51777;53.570;9.984;2022-08-19T03:33:21;100926.63;;;19.69;100.00
65190;BME280;51777;53.570;9.984;2022-08-19T03:35:47;100933.06;;;19.66;100.00
65190;BME280;51777;53.570;9.984;2022-08-19T03:38:12;100932.47;;;19.64;100.00
65190;BME280;51777;53.570;9.984;2022-08-19T03:40:37;100921.97;;;19.64;100.00
65190;BME280;51777;53.570;9.984;2022-08-19T03:43:03;100919.34;;;19.57;100.00
65190;BME280;51777;53.570;9.984;2022-08-19T03:45:28;100930.03;;;19.56;100.00
65190;BME280;51777;53.570;9.984;2022-08-19T03:47:55;100927.78;;;19.53;100.00
65190;BME280;51777;53.570;9.984;2022-08-19T03:50:20;100929.81;;;19.57;100.00
65190;BME280;51777;53.570;9.984;2022-08-19T03:52:49;100940.34;;;19.64;100.00
65190;BME280;51777;53.570;9.984;2022-08-19T03:55:16;100938.94;;;19.68;100.00
65190;BME280;51777;53.570;9.984;2022-08-19T03:57:41;100935.91;;;19.71;100.00
65190;BME280;51777;53.570;9.984;2022-08-19T04:00:07;100936.69;;;19.72;100.00
65190;BME280;51777;53.570;9.984;2022-08-19T04:02:33;100950.44;;;19.67;100.00
65190;BME280;51777;53.570;9.984;2022-08-19T04:04:58;100947.00;;;19.60;100.00
65190;BME280;51777;53.570;9.984;2022-08-19T04:07:24;100953.47;;;19.64;100.00
65190;BME280;51777;53.570;9.984;2022-08-19T04:09:49;100959.72;;;19.63;100.00
65190;BME280;51777;53.570;9.984;2022-08-19T04:12:17;100964.31;;;19.54;100.00
65190;BME280;51777;53.570;9.984;2022-08-19T04:14:45;100957.84;;;19.50;100.00
65190;BME280;51777;53.570;9.984;2022-08-19T04:17:12;100955.44;;;19.49;100.00
65190;BME280;51777;53.570;9.984;2022-08-19T04:19:38;100959.44;;;19.45;100.00
65190;BME280;51777;53.570;9.984;2022-08-19T04:22:04;100968.53;;;19.49;100.00
65190;BME280;51777;53.570;9.984;2022-08-19T04:24:30;100979.88;;;19.56;100.00
65190;BME280;51777;53.570;9.984;2022-08-19T04:26:55;100982.88;;;19.59;100.00
65190;BME280;51777;53.570;9.984;2022-08-19T04:29:23;100978.84;;;19.57;100.00
65190;BME280;51777;53.570;9.984;2022-08-19T04:31:52;100980.28;;;19.59;100.00
65190;BME280;51777;53.570;9.984;2022-08-19T04:34:20;100980.47;;;19.58;100.00
65190;BME280;51777;53.570;9.984;2022-08-19T04:36:47;100988.97;;;19.60;100.00
65190;BME280;51777;53.570;9.984;2022-08-19T04:39:18;100993.00;;;19.62;100.00
65190;BME280;51777;53.570;9.984;2022-08-19T04:41:44;100987.53;;;19.57;100.00
65190;BME280;51777;53.570;9.984;2022-08-19T04:44:31;100982.88;;;19.53;100.00
65190;BME280;51777;53.570;9.984;2022-08-19T04:46:57;100991.13;;;19.50;100.00
65190;BME280;51777;53.570;9.984;2022-08-19T04:49:22;100986.50;;;19.52;100.00
65190;BME280;51777;53.570;9.984;2022-08-19T04:51:49;100990.91;;;19.45;100.00
65190;BME280;51777;53.570;9.984;2022-08-19T04:54:18;100993.16;;;19.48;100.00
65190;BME280;51777;53.570;9.984;2022-08-19T04:56:51;100989.91;;;19.52;100.00
65190;BME280;51777;53.570;9.984;2022-08-19T04:59:17;100994.38;;;19.52;100.00
65190;BME280;51777;53.570;9.984;2022-08-19T05:01:46;101000.03;;;19.55;100.00
65190;BME280;51777;53.570;9.984;2022-08-19T05:04:16;100997.00;;;19.52;100.00
65190;BME280;51777;53.570;9.984;2022-08-19T05:06:42;100992.72;;;19.44;100.00
65190;BME280;51777;53.570;9.984;2022-08-19T05:09:08;101001.59;;;19.43;100.00
65190;BME280;51777;53.570;9.984;2022-08-19T05:11:36;100999.56;;;19.39;100.00
65190;BME280;51777;53.570;9.984;2022-08-19T05:14:03;101000.34;;;19.32;100.00
65190;BME280;51777;53.570;9.984;2022-08-19T05:16:29;101012.03;;;19.30;100.00
65190;BME280;51777;53.570;9.984;2022-08-19T05:18:55;100997.31;;;19.29;100.00
65190;BME280;51777;53.570;9.984;2022-08-19T05:21:40;100998.13;;;19.29;100.00
65190;BME280;51777;53.570;9.984;2022-08-19T05:24:25;101000.94;;;19.28;100.00
65190;BME280;51777;53.570;9.984;2022-08-19T05:26:52;101010.63;;;19.27;100.00
65190;BME280;51777;53.570;9.984;2022-08-19T05:29:20;101013.84;;;19.29;100.00
65190;BME280;51777;53.570;9.984;2022-08-19T05:31:47;101016.06;;;19.32;100.00
65190;BME280;51777;53.570;9.984;2022-08-19T05:34:15;101013.25;;;19.34;100.00
65190;BME280;51777;53.570;9.984;2022-08-19T05:36:43;101016.69;;;19.34;100.00
65190;BME280;51777;53.570;9.984;2022-08-19T05:39:13;101015.06;;;19.33;100.00
65190;BME280;51777;53.570;9.984;2022-08-19T05:41:54;101015.69;;;19.35;100.00
65190;BME280;51777;53.570;9.984;2022-08-19T05:44:26;101009.00;;;19.33;100.00
65190;BME280;51777;53.570;9.984;2022-08-19T05:46:53;101008.41;;;19.31;100.00
65190;BME280;51777;53.570;9.984;2022-08-19T05:49:21;101013.44;;;19.32;100.00
65190;BME280;51777;53.570;9.984;2022-08-19T05:51:46;101013.44;;;19.32;100.00
65190;BME280;51777;53.570;9.984;2022-08-19T05:54:12;101012.69;;;19.39;100.00
65190;BME280;51777;53.570;9.984;2022-08-19T05:56:40;101005.41;;;19.41;100.00
65190;BME280;51777;53.570;9.984;2022-08-19T05:59:08;101005.03;;;19.44;100.00
65190;BME280;51777;53.570;9.984;2022-08-19T06:01:37;101012.69;;;19.39;100.00
65190;BME280;51777;53.570;9.984;2022-08-19T06:04:03;101004.22;;;19.36;100.00
65190;BME280;51777;53.570;9.984;2022-08-19T06:06:29;100999.53;;;19.32;100.00
65190;BME280;51777;53.570;9.984;2022-08-19T06:08:55;101008.44;;;19.38;100.00
65190;BME280;51777;53.570;9.984;2022-08-19T06:11:41;101006.84;;;19.36;100.00
65190;BME280;51777;53.570;9.984;2022-08-19T06:14:14;101014.28;;;19.40;100.00
65190;BME280;51777;53.570;9.984;2022-08-19T06:16:41;101005.41;;;19.41;100.00
65190;BME280;51777;53.570;9.984;2022-08-19T06:19:09;101008.66;;;19.43;100.00
65190;BME280;51777;53.570;9.984;2022-08-19T06:21:37;101005.47;;;19.54;100.00
65190;BME280;51777;53.570;9.984;2022-08-19T06:24:05;101013.72;;;19.51;100.00
65190;BME280;51777;53.570;9.984;2022-08-19T06:26:34;101016.75;;;19.48;100.00
65190;BME280;51777;53.570;9.984;2022-08-19T06:28:59;101019.81;;;19.58;100.00
65190;BME280;51777;53.570;9.984;2022-08-19T06:31:28;101012.38;;;19.68;100.00
65190;BME280;51777;53.570;9.984;2022-08-19T06:33:54;101014.59;;;19.71;100.00
65190;BME280;51777;53.570;9.984;2022-08-19T06:36:22;101011.00;;;19.72;100.00
65190;BME280;51777;53.570;9.984;2022-08-19T06:38:52;101012.59;;;19.67;100.00
65190;BME280;51777;53.570;9.984;2022-08-19T06:41:17;101003.13;;;19.72;100.00
65190;BME280;51777;53.570;9.984;2022-08-19T06:43:43;101003.13;;;19.72;100.00
65190;BME280;51777;53.570;9.984;2022-08-19T06:46:14;101003.72;;;19.74;100.00
65190;BME280;51777;53.570;9.984;2022-08-19T06:48:41;101005.53;;;19.67;100.00
65190;BME280;51777;53.570;9.984;2022-08-19T06:51:06;101008.94;;;19.68;100.00
65190;BME280;51777;53.570;9.984;2022-08-19T06:53:32;101002.13;;;19.73;100.00
65190;BME280;51777;53.570;9.984;2022-08-19T06:55:57;101011.41;;;19.76;100.00
65190;BME280;51777;53.570;9.984;2022-08-19T06:58:29;101008.16;;;19.80;100.00
65190;BME280;51777;53.570;9.984;2022-08-19T07:01:05;101010.81;;;19.87;100.00
65190;BME280;51777;53.570;9.984;2022-08-19T07:03:34;101019.69;;;19.86;100.00
65190;BME280;51777;53.570;9.984;2022-08-19T07:06:11;101021.09;;;19.82;100.00
65190;BME280;51777;53.570;9.984;2022-08-19T07:08:37;101013.25;;;19.88;100.00
65190;BME280;51777;53.570;9.984;2022-08-19T07:11:11;101013.22;;;19.95;100.00
65190;BME280;51777;53.570;9.984;2022-08-19T07:13:38;101011.63;;;19.94;100.00
65190;BME280;51777;53.570;9.984;2022-08-19T07:16:07;101019.69;;;19.92;100.00
65190;BME280;51777;53.570;9.984;2022-08-19T07:18:34;101016.66;;;19.95;100.00
65190;BME280;51777;53.570;9.984;2022-08-19T07:23:29;101011.84;;;20.06;100.00
65190;BME280;51777;53.570;9.984;2022-08-19T07:25:55;101011.25;;;20.10;100.00
65190;BME280;51777;53.570;9.984;2022-08-19T07:28:21;101010.03;;;20.19;100.00
65190;BME280;51777;53.570;9.984;2022-08-19T07:30:48;101013.25;;;20.28;98.73
65190;BME280;51777;53.570;9.984;2022-08-19T07:33:15;101019.53;;;20.40;98.55
65190;BME280;51777;53.570;9.984;2022-08-19T07:35:41;101029.63;;;20.57;97.67
65190;BME280;51777;53.570;9.984;2022-08-19T07:38:07;101036.28;;;20.66;96.35
65190;BME280;51777;53.570;9.984;2022-08-19T07:40:32;101042.75;;;20.70;95.23
65190;BME280;51777;53.570;9.984;2022-08-19T07:42:58;101041.56;;;20.66;95.27
65190;BME280;51777;53.570;9.984;2022-08-19T07:45:23;101045.00;;;20.60;95.03
65190;BME280;51777;53.570;9.984;2022-08-19T07:47:49;101044.78;;;20.68;95.53
65190;BME280;51777;53.570;9.984;2022-08-19T07:50:15;101049.22;;;20.74;94.71
65190;BME280;51777;53.570;9.984;2022-08-19T07:52:45;101056.50;;;20.78;94.05
65190;BME280;51777;53.570;9.984;2022-08-19T07:55:12;101051.84;;;20.74;93.43
65190;BME280;51777;53.570;9.984;2022-08-19T07:57:37;101059.31;;;20.70;93.59
65190;BME280;51777;53.570;9.984;2022-08-19T08:00:05;101062.56;;;20.72;93.35
65190;BME280;51777;53.570;9.984;2022-08-19T08:02:31;101063.97;;;20.68;92.90
65190;BME280;51777;53.570;9.984;2022-08-19T08:04:56;101065.00;;;20.67;92.42
65190;BME280;51777;53.570;9.984;2022-08-19T08:07:40;101072.66;;;20.69;92.84
65190;BME280;51777;53.570;9.984;2022-08-19T08:10:30;101077.75;;;20.64;93.24
65190;BME280;51777;53.570;9.984;2022-08-19T08:12:56;101089.69;;;20.60;92.71
65190;BME280;51777;53.570;9.984;2022-08-19T08:15:24;101094.13;;;20.59;93.65
65190;BME280;51777;53.570;9.984;2022-08-19T08:17:49;101082.78;;;20.59;93.25
65190;BME280;51777;53.570;9.984;2022-08-19T08:20:16;101090.25;;;20.55;93.08
65190;BME280;51777;53.570;9.984;2022-08-19T08:22:45;101086.41;;;20.58;93.53
65190;BME280;51777;53.570;9.984;2022-08-19T08:25:37;101081.16;;;20.71;93.47
65190;BME280;51777;53.570;9.984;2022-08-19T08:28:04;101089.25;;;20.76;92.75
65190;BME280;51777;53.570;9.984;2022-08-19T08:30:30;101089.25;;;20.76;92.55
65190;BME280;51777;53.570;9.984;2022-08-19T08:32:57;101089.88;;;20.71;92.47
65190;BME280;51777;53.570;9.984;2022-08-19T08:35:23;101095.53;;;20.75;92.71
65190;BME280;51777;53.570;9.984;2022-08-19T08:37:52;101096.34;;;20.75;92.41
65190;BME280;51777;53.570;9.984;2022-08-19T08:45:30;101096.91;;;20.71;92.72
65190;BME280;51777;53.570;9.984;2022-08-19T08:48:02;101098.34;;;20.80;92.63
65190;BME280;51777;53.570;9.984;2022-08-19T08:50:35;101091.25;;;20.87;91.50
65190;BME280;51777;53.570;9.984;2022-08-19T08:53:03;101102.19;;;20.84;91.78
65190;BME280;51777;53.570;9.984;2022-08-19T08:55:31;101099.94;;;20.94;91.53
65190;BME280;51777;53.570;9.984;2022-08-19T08:58:05;101098.13;;;21.01;91.07
65190;BME280;51777;53.570;9.984;2022-08-19T09:00:34;101103.16;;;21.03;90.71
65190;BME280;51777;53.570;9.984;2022-08-19T09:03:02;101096.69;;;21.05;90.88
65190;BME280;51777;53.570;9.984;2022-08-19T09:05:41;101101.34;;;21.10;90.19
65190;BME280;51777;53.570;9.984;2022-08-19T09:10:55;101100.13;;;21.06;90.35
65190;BME280;51777;53.570;9.984;2022-08-19T09:16:14;101103.56;;;21.00;91.21
65190;BME280;51777;53.570;9.984;2022-08-19T09:18:52;101105.97;;;21.15;90.43
65190;BME280;51777;53.570;9.984;2022-08-19T09:21:20;101110.41;;;21.21;90.48
65190;BME280;51777;53.570;9.984;2022-08-19T09:23:46;101106.19;;;21.26;89.77
65190;BME280;51777;53.570;9.984;2022-08-19T09:26:14;101108.59;;;21.34;88.96
65190;BME280;51777;53.570;9.984;2022-08-19T09:28:42;101105.69;;;21.49;88.81
65190;BME280;51777;53.570;9.984;2022-08-19T09:31:10;101108.72;;;21.53;88.25
65190;BME280;51777;53.570;9.984;2022-08-19T09:33:35;101104.09;;;21.48;88.17
65190;BME280;51777;53.570;9.984;2022-08-19T09:36:06;101112.34;;;21.58;87.87
65190;BME280;51777;53.570;9.984;2022-08-19T09:38:33;101103.59;;;21.64;87.34
65190;BME280;51777;53.570;9.984;2022-08-19T09:41:10;101107.56;;;21.80;86.21
65190;BME280;51777;53.570;9.984;2022-08-19T09:43:37;101105.69;;;21.94;85.51
65190;BME280;51777;53.570;9.984;2022-08-19T09:46:04;101101.78;;;22.03;84.95
65190;BME280;51777;53.570;9.984;2022-08-19T09:48:32;101102.03;;;21.95;85.67
65190;BME280;51777;53.570;9.984;2022-08-19T09:51:09;101099.38;;;21.95;85.61
65190;BME280;51777;53.570;9.984;2022-08-19T09:53:35;101103.69;;;21.89;86.15
65190;BME280;51777;53.570;9.984;2022-08-19T09:56:01;101098.63;;;21.88;86.70
65190;BME280;51777;53.570;9.984;2022-08-19T09:58:27;101107.03;;;22.03;85.71
65190;BME280;51777;53.570;9.984;2022-08-19T10:00:55;101107.63;;;22.05;85.90
65190;BME280;51777;53.570;9.984;2022-08-19T10:03:20;101114.38;;;21.94;86.29
65190;BME280;51777;53.570;9.984;2022-08-19T10:05:46;101108.16;;;21.89;86.48
65190;BME280;51777;53.570;9.984;2022-08-19T10:08:30;101100.69;;;21.79;86.19
65190;BME280;51777;53.570;9.984;2022-08-19T10:10:58;101103.16;;;21.74;87.25
65190;BME280;51777;53.570;9.984;2022-08-19T10:13:26;101103.13;;;21.81;87.12
65190;BME280;51777;53.570;9.984;2022-08-19T10:15:54;101098.63;;;21.88;86.92
65190;BME280;51777;53.570;9.984;2022-08-19T10:18:22;101119.66;;;21.94;86.39
65190;BME280;51777;53.570;9.984;2022-08-19T10:20:49;101114.16;;;22.09;86.64
65190;BME280;51777;53.570;9.984;2022-08-19T10:23:15;101115.16;;;22.08;86.17
65190;BME280;51777;53.570;9.984;2022-08-19T10:25:41;101112.09;;;22.05;86.81
65190;BME280;51777;53.570;9.984;2022-08-19T10:28:08;101113.38;;;21.95;86.79
65190;BME280;51777;53.570;9.984;2022-08-19T10:30:35;101112.91;;;22.05;86.75
65190;BME280;51777;53.570;9.984;2022-08-19T10:33:01;101107.81;;;22.17;86.29
65190;BME280;51777;53.570;9.984;2022-08-19T10:35:26;101112.44;;;22.21;86.02
65190;BME280;51777;53.570;9.984;2022-08-19T10:37:55;101108.00;;;22.22;86.01
65190;BME280;51777;53.570;9.984;2022-08-19T10:40:24;101111.56;;;21.96;86.99
65190;BME280;51777;53.570;9.984;2022-08-19T10:42:50;101115.09;;;21.77;88.28
65190;BME280;51777;53.570;9.984;2022-08-19T10:45:15;101114.44;;;21.81;88.75
65190;BME280;51777;53.570;9.984;2022-08-19T10:47:41;101116.72;;;21.78;89.54
65190;BME280;51777;53.570;9.984;2022-08-19T10:50:07;101106.19;;;21.78;89.28
65190;BME280;51777;53.570;9.984;2022-08-19T10:52:51;101106.78;;;21.80;89.03
65190;BME280;51777;53.570;9.984;2022-08-19T10:55:22;101100.16;;;21.71;89.43
65190;BME280;51777;53.570;9.984;2022-08-19T10:58:15;101108.56;;;21.86;89.50
65190;BME280;51777;53.570;9.984;2022-08-19T11:00:42;101113.78;;;21.92;88.46
65190;BME280;51777;53.570;9.984;2022-08-19T11:03:11;101105.09;;;21.92;88.58
65190;BME280;51777;53.570;9.984;2022-08-19T11:05:36;101098.56;;;22.01;88.15
65190;BME280;51777;53.570;9.984;2022-08-19T11:08:03;101094.69;;;22.10;87.56
65190;BME280;51777;53.570;9.984;2022-08-19T11:10:28;101104.78;;;22.13;87.24
65190;BME280;51777;53.570;9.984;2022-08-19T11:12:57;101099.53;;;22.13;87.28
65190;BME280;51777;53.570;9.984;2022-08-19T11:15:24;101106.97;;;22.23;85.79
65190;BME280;51777;53.570;9.984;2022-08-19T11:17:51;101104.91;;;22.25;85.76
65190;BME280;51777;53.570;9.984;2022-08-19T11:20:17;101109.44;;;22.43;85.61
65190;BME280;51777;53.570;9.984;2022-08-19T11:22:42;101106.09;;;22.54;84.71
65190;BME280;51777;53.570;9.984;2022-08-19T11:25:10;101106.75;;;22.74;83.31
65190;BME280;51777;53.570;9.984;2022-08-19T11:27:40;101110.69;;;22.90;82.36
65190;BME280;51777;53.570;9.984;2022-08-19T11:30:08;101109.34;;;23.24;81.29
65190;BME280;51777;53.570;9.984;2022-08-19T11:32:33;101099.06;;;23.71;78.49
65190;BME280;51777;53.570;9.984;2022-08-19T11:34:59;101099.69;;;23.85;76.77
65190;BME280;51777;53.570;9.984;2022-08-19T11:37:24;101104.38;;;23.83;77.88
65190;BME280;51777;53.570;9.984;2022-08-19T11:39:50;101101.63;;;23.89;76.90
65190;BME280;51777;53.570;9.984;2022-08-19T11:42:17;101095.72;;;24.06;76.13
65190;BME280;51777;53.570;9.984;2022-08-19T11:45:01;101097.72;;;24.22;75.99
65190;BME280;51777;53.570;9.984;2022-08-19T11:47:29;101093.91;;;24.18;75.83
65190;BME280;51777;53.570;9.984;2022-08-19T11:49:55;101089.66;;;24.17;75.04
65190;BME280;51777;53.570;9.984;2022-08-19T11:52:21;101094.47;;;24.08;75.67
65190;BME280;51777;53.570;9.984;2022-08-19T12:08:52;101098.88;;;23.84;76.43
65190;BME280;51777;53.570;9.984;2022-08-19T12:11:19;101097.22;;;23.71;76.63
65190;BME280;51777;53.570;9.984;2022-08-19T12:13:44;101103.25;;;23.60;76.72
65190;BME280;51777;53.570;9.984;2022-08-19T12:16:20;101099.22;;;23.58;77.27
65190;BME280;51777;53.570;9.984;2022-08-19T12:18:47;101095.38;;;23.72;76.57
65190;BME280;51777;53.570;9.984;2022-08-19T12:21:19;101097.34;;;24.18;75.06
65190;BME280;51777;53.570;9.984;2022-08-19T12:23:47;101105.94;;;24.79;72.60
65190;BME280;51777;53.570;9.984;2022-08-19T12:26:13;101092.84;;;25.07;71.21
65190;BME280;51777;53.570;9.984;2022-08-19T12:28:39;101112.44;;;26.49;67.75
65190;BME280;51777;53.570;9.984;2022-08-19T12:31:05;101110.59;;;28.99;57.17
65190;BME280;51777;53.570;9.984;2022-08-19T12:33:31;101113.06;;;30.39;52.77
65190;BME280;51777;53.570;9.984;2022-08-19T12:36:04;101119.38;;;31.64;49.18
65190;BME280;51777;53.570;9.984;2022-08-19T12:38:31;101117.66;;;32.17;46.63
65190;BME280;51777;53.570;9.984;2022-08-19T12:40:57;101107.38;;;32.00;46.56
65190;BME280;51777;53.570;9.984;2022-08-19T12:43:23;101103.25;;;31.24;48.00
65190;BME280;51777;53.570;9.984;2022-08-19T12:45:49;101100.84;;;31.23;47.84
65190;BME280;51777;53.570;9.984;2022-08-19T12:48:14;101104.59;;;31.12;49.36
65190;BME280;51777;53.570;9.984;2022-08-19T12:50:41;101099.72;;;30.64;49.40
65190;BME280;51777;53.570;9.984;2022-08-19T12:53:07;101095.69;;;30.01;50.50
65190;BME280;51777;53.570;9.984;2022-08-19T12:55:33;101095.97;;;29.94;51.18
65190;BME280;51777;53.570;9.984;2022-08-19T12:57:58;101102.63;;;30.58;49.39
65190;BME280;51777;53.570;9.984;2022-08-19T13:00:27;101102.16;;;30.15;50.04
65190;BME280;51777;53.570;9.984;2022-08-19T13:02:53;101097.31;;;30.12;50.46
65190;BME280;51777;53.570;9.984;2022-08-19T13:05:21;101095.44;;;30.13;50.42
65190;BME280;51777;53.570;9.984;2022-08-19T13:07:51;101094.91;;;29.90;50.45
65190;BME280;51777;53.570;9.984;2022-08-19T13:10:20;101084.75;;;28.99;52.63
65190;BME280;51777;53.570;9.984;2022-08-19T13:12:48;101078.50;;;28.36;55.17
65190;BME280;51777;53.570;9.984;2022-08-19T13:15:15;101083.38;;;27.85;56.27
65190;BME280;51777;53.570;9.984;2022-08-19T13:17:47;101078.69;;;27.43;57.84
65190;BME280;51777;53.570;9.984;2022-08-19T13:20:16;101078.47;;;26.84;59.80